sensor_id;sensor_type;location;lat;lon;timestamp;pressure;altitude;pressure_sealevel;temperature;humidity
8627;BME280;4351;51.422;6.794;2023-03-01T00:01:18;102908.41;;;-0.19;100.00
8627;BME280;4351;51.422;6.794;2023-03-01T00:03:46;102909.22;;;-0.21;100.00
8627;BME280;4351;51.422;6.794;2023-03-01T00:06:14;102913.69;;;-0.20;100.00
8627;BME280;4351;51.422;6.794;2023-03-01T00:08:42;102925.94;;;-0.27;100.00
8627;BME280;4351;51.422;6.794;2023-03-01T00:11:13;102917.16;;;-0.25;100.00
8627;BME280;4351;51.422;6.794;2023-03-01T00:13:43;102908.97;;;-0.36;100.00
8627;BME280;4351;51.422;6.794;2023-03-01T00:16:14;102924.09;;;-0.31;100.00
8627;BME280;4351;51.422;6.794;2023-03-01T00:18:42;102924.09;;;-0.31;100.00
8627;BME280;4351;51.422;6.794;2023-03-01T00:21:10;102924.09;;;-0.31;100.00
8627;BME280;4351;51.422;6.794;2023-03-01T00:23:38;102920.44;;;-0.37;100.00
8627;BME280;4351;51.422;6.794;2023-03-01T00:26:08;102914.22;;;-0.37;100.00
8627;BME280;4351;51.422;6.794;2023-03-01T00:28:40;102905.50;;;-0.33;100.00
8627;BME280;4351;51.422;6.794;2023-03-01T00:31:10;102910.84;;;-0.30;100.00
8627;BME280;4351;51.422;6.794;2023-03-01T00:33:39;102904.47;;;-0.40;100.00
8627;BME280;4351;51.422;6.794;2023-03-01T00:36:08;102900.75;;;-0.48;100.00
8627;BME280;4351;51.422;6.794;2023-03-01T00:38:37;102890.28;;;-0.42;100.00
8627;BME280;4351;51.422;6.794;2023-03-01T00:41:07;102891.22;;;-0.38;100.00
8627;BME280;4351;51.422;6.794;2023-03-01T00:43:36;102886.81;;;-0.38;100.00
8627;BME280;4351;51.422;6.794;2023-03-01T00:46:07;102889.38;;;-0.44;100.00
8627;BME280;4351;51.422;6.794;2023-03-01T00:48:36;102882.03;;;-0.56;100.00
8627;BME280;4351;51.422;6.794;2023-03-01T00:51:06;102891.69;;;-0.60;100.00
8627;BME280;4351;51.422;6.794;2023-03-01T00:53:34;102882.75;;;-0.63;100.00
8627;BME280;4351;51.422;6.794;2023-03-01T00:56:04;102880.28;;;-0.55;100.00
8627;BME280;4351;51.422;6.794;2023-03-01T00:58:32;102874.09;;;-0.54;100.00
8627;BME280;4351;51.422;6.794;2023-03-01T01:01:00;102873.97;;;-0.61;100.00
8627;BME280;4351;51.422;6.794;2023-03-01T01:03:30;102877.44;;;-0.63;100.00
8627;BME280;4351;51.422;6.794;2023-03-01T01:05:58;102870.41;;;-0.63;100.00
8627;BME280;4351;51.422;6.794;2023-03-01T01:08:31;102873.94;;;-0.64;100.00
8627;BME280;4351;51.422;6.794;2023-03-01T01:10:59;102865.16;;;-0.60;100.00
8627;BME280;4351;51.422;6.794;2023-03-01T01:13:26;102865.06;;;-0.66;100.00
8627;BME280;4351;51.422;6.794;2023-03-01T01:15:54;102866.91;;;-0.62;100.00
8627;BME280;4351;51.422;6.794;2023-03-01T01:18:27;102859.66;;;-0.71;100.00
8627;BME280;4351;51.422;6.794;2023-03-01T01:20:57;102861.41;;;-0.71;100.00
8627;BME280;4351;51.422;6.794;2023-03-01T01:23:26;102849.97;;;-0.68;100.00
8627;BME280;4351;51.422;6.794;2023-03-01T01:25:53;102846.44;;;-0.67;100.00
8627;BME280;4351;51.422;6.794;2023-03-01T01:28:21;102853.47;;;-0.70;100.00
8627;BME280;4351;51.422;6.794;2023-03-01T01:30:49;102842.75;;;-0.76;100.00
8627;BME280;4351;51.422;6.794;2023-03-01T01:33:17;102840.97;;;-0.77;100.00
8627;BME280;4351;51.422;6.794;2023-03-01T01:35:45;102837.31;;;-0.82;100.00
8627;BME280;4351;51.422;6.794;2023-03-01T01:38:14;102827.47;;;-0.88;100.00
8627;BME280;4351;51.422;6.794;2023-03-01T01:40:43;102829.25;;;-0.87;100.00
8627;BME280;4351;51.422;6.794;2023-03-01T01:43:18;102829.38;;;-0.81;100.00
8627;BME280;4351;51.422;6.794;2023-03-01T01:45:47;102823.13;;;-0.84;100.00
8627;BME280;4351;51.422;6.794;2023-03-01T01:48:19;102825.81;;;-0.83;100.00
8627;BME280;4351;51.422;6.794;2023-03-01T01:50:54;102826.72;;;-0.82;100.00
8627;BME280;4351;51.422;6.794;2023-03-01T01:53:25;102825.59;;;-0.92;100.00
8627;BME280;4351;51.422;6.794;2023-03-01T01:55:55;102822.09;;;-0.91;100.00
8627;BME280;4351;51.422;6.794;2023-03-01T01:58:27;102813.28;;;-0.90;100.00
8627;BME280;4351;51.422;6.794;2023-03-01T02:00:57;102818.53;;;-0.93;100.00
8627;BME280;4351;51.422;6.794;2023-03-01T02:03:31;102819.31;;;-0.97;100.00
8627;BME280;4351;51.422;6.794;2023-03-01T02:06:06;102818.44;;;-0.96;100.00
8627;BME280;4351;51.422;6.794;2023-03-01T02:08:41;102821.84;;;-1.03;100.00
8627;BME280;4351;51.422;6.794;2023-03-01T02:11:10;102828.88;;;-1.06;100.00
8627;BME280;4351;51.422;6.794;2023-03-01T02:13:41;102823.63;;;-1.02;100.00
8627;BME280;4351;51.422;6.794;2023-03-01T02:16:12;102827.16;;;-1.03;100.00
8627;BME280;4351;51.422;6.794;2023-03-01T02:18:42;102825.38;;;-1.03;100.00
8627;BME280;4351;51.422;6.794;2023-03-01T02:21:30;102820.00;;;-1.08;100.00
8627;BME280;4351;51.422;6.794;2023-03-01T02:24:08;102803.41;;;-0.99;100.00
8627;BME280;4351;51.422;6.794;2023-03-01T02:26:42;102804.22;;;-1.01;100.00
8627;BME280;4351;51.422;6.794;2023-03-01T02:29:14;102814.88;;;-0.98;100.00
8627;BME280;4351;51.422;6.794;2023-03-01T02:31:42;102805.16;;;-0.99;100.00
8627;BME280;4351;51.422;6.794;2023-03-01T02:34:13;102799.88;;;-0.98;100.00
8627;BME280;4351;51.422;6.794;2023-03-01T02:36:45;102797.78;;;-1.14;100.00
8627;BME280;4351;51.422;6.794;2023-03-01T02:39:17;102803.19;;;-1.10;100.00
8627;BME280;4351;51.422;6.794;2023-03-01T02:41:50;102794.13;;;-1.20;100.00
8627;BME280;4351;51.422;6.794;2023-03-01T02:44:21;102795.16;;;-1.13;100.00
8627;BME280;4351;51.422;6.794;2023-03-01T02:46:51;102797.72;;;-1.16;100.00
8627;BME280;4351;51.422;6.794;2023-03-01T02:49:24;102795.28;;;-1.07;100.00
8627;BME280;4351;51.422;6.794;2023-03-01T02:52:01;102803.09;;;-1.13;100.00
8627;BME280;4351;51.422;6.794;2023-03-01T02:54:38;102801.16;;;-1.20;100.00
8627;BME280;4351;51.422;6.794;2023-03-01T02:57:08;102804.03;;;-1.11;100.00
8627;BME280;4351;51.422;6.794;2023-03-01T02:59:38;102804.91;;;-1.10;100.00
8627;BME280;4351;51.422;6.794;2023-03-01T03:02:16;102813.78;;;-1.10;100.00
8627;BME280;4351;51.422;6.794;2023-03-01T03:04:46;102809.25;;;-1.14;100.00
8627;BME280;4351;51.422;6.794;2023-03-01T03:07:15;102811.03;;;-1.13;100.00
8627;BME280;4351;51.422;6.794;2023-03-01T03:09:43;102813.03;;;-1.02;100.00
8627;BME280;4351;51.422;6.794;2023-03-01T03:12:12;102810.31;;;-1.06;100.00
8627;BME280;4351;51.422;6.794;2023-03-01T03:14:41;102804.28;;;-0.98;100.00
8627;BME280;4351;51.422;6.794;2023-03-01T03:17:09;102804.16;;;-1.05;100.00
8627;BME280;4351;51.422;6.794;2023-03-01T03:19:37;102804.31;;;-0.97;100.00
8627;BME280;4351;51.422;6.794;2023-03-01T03:22:04;102801.47;;;-1.06;100.00
8627;BME280;4351;51.422;6.794;2023-03-01T03:24:32;102797.25;;;-0.96;100.00
8627;BME280;4351;51.422;6.794;2023-03-01T03:27:04;102798.09;;;-0.99;100.00
8627;BME280;4351;51.422;6.794;2023-03-01T03:29:33;102795.47;;;-0.97;100.00
8627;BME280;4351;51.422;6.794;2023-03-01T03:32:03;102792.03;;;-0.93;100.00
8627;BME280;4351;51.422;6.794;2023-03-01T03:34:30;102792.75;;;-1.00;100.00
8627;BME280;4351;51.422;6.794;2023-03-01T03:36:58;102786.53;;;-1.02;100.00
8627;BME280;4351;51.422;6.794;2023-03-01T03:39:28;102793.63;;;-1.01;100.00
8627;BME280;4351;51.422;6.794;2023-03-01T03:42:01;102792.88;;;-0.94;100.00
8627;BME280;4351;51.422;6.794;2023-03-01T03:44:29;102790.22;;;-0.94;100.00
8627;BME280;4351;51.422;6.794;2023-03-01T03:46:57;102785.81;;;-0.94;100.00
8627;BME280;4351;51.422;6.794;2023-03-01T03:49:26;102780.59;;;-0.90;100.00
8627;BME280;4351;51.422;6.794;2023-03-01T03:51:54;102781.41;;;-0.93;100.00
8627;BME280;4351;51.422;6.794;2023-03-01T03:54:22;102766.44;;;-0.91;100.00
8627;BME280;4351;51.422;6.794;2023-03-01T03:56:49;102775.38;;;-0.86;100.00
8627;BME280;4351;51.422;6.794;2023-03-01T03:59:17;102772.69;;;-0.87;100.00
8627;BME280;4351;51.422;6.794;2023-03-01T04:01:45;102769.22;;;-0.85;100.00
8627;BME280;4351;51.422;6.794;2023-03-01T04:04:13;102764.72;;;-0.89;100.00
8627;BME280;4351;51.422;6.794;2023-03-01T04:06:45;102758.59;;;-0.85;100.00
8627;BME280;4351;51.422;6.794;2023-03-01T04:09:15;102755.91;;;-0.88;100.00
8627;BME280;4351;51.422;6.794;2023-03-01T04:11:43;102752.19;;;-0.96;100.00
8627;BME280;4351;51.422;6.794;2023-03-01T04:14:10;102751.38;;;-0.92;100.00
8627;BME280;4351;51.422;6.794;2023-03-01T04:16:38;102747.81;;;-0.94;100.00
8627;BME280;4351;51.422;6.794;2023-03-01T04:19:06;102746.03;;;-0.97;100.00
8627;BME280;4351;51.422;6.794;2023-03-01T04:21:36;102752.16;;;-0.99;100.00
8627;BME280;4351;51.422;6.794;2023-03-01T04:24:05;102747.88;;;-0.91;100.00
8627;BME280;4351;51.422;6.794;2023-03-01T04:26:33;102744.31;;;-0.93;100.00
8627;BME280;4351;51.422;6.794;2023-03-01T04:29:01;102743.28;;;-1.01;100.00
8627;BME280;4351;51.422;6.794;2023-03-01T04:31:29;102743.28;;;-1.00;100.00
8627;BME280;4351;51.422;6.794;2023-03-01T04:34:00;102744.25;;;-0.96;100.00
8627;BME280;4351;51.422;6.794;2023-03-01T04:36:29;102752.25;;;-0.93;100.00
8627;BME280;4351;51.422;6.794;2023-03-01T04:38:58;102746.88;;;-0.98;100.00
8627;BME280;4351;51.422;6.794;2023-03-01T04:41:27;102752.09;;;-1.01;100.00
8627;BME280;4351;51.422;6.794;2023-03-01T04:43:55;102751.28;;;-0.98;100.00
8627;BME280;4351;51.422;6.794;2023-03-01T04:46:23;102750.31;;;-1.02;100.00
8627;BME280;4351;51.422;6.794;2023-03-01T04:48:52;102748.53;;;-1.03;100.00
8627;BME280;4351;51.422;6.794;2023-03-01T04:51:19;102747.69;;;-1.00;100.00
8627;BME280;4351;51.422;6.794;2023-03-01T04:53:47;102754.09;;;-0.89;100.00
8627;BME280;4351;51.422;6.794;2023-03-01T04:56:16;102745.16;;;-0.94;100.00
8627;BME280;4351;51.422;6.794;2023-03-01T04:58:46;102743.38;;;-0.95;100.00
8627;BME280;4351;51.422;6.794;2023-03-01T05:01:16;102739.72;;;-1.02;100.00
8627;BME280;4351;51.422;6.794;2023-03-01T05:03:45;102743.38;;;-0.95;100.00
8627;BME280;4351;51.422;6.794;2023-03-01T05:06:14;102733.59;;;-0.99;100.00
8627;BME280;4351;51.422;6.794;2023-03-01T05:08:43;102742.50;;;-0.94;100.00
8627;BME280;4351;51.422;6.794;2023-03-01T05:11:11;102735.13;;;-1.11;100.00
8627;BME280;4351;51.422;6.794;2023-03-01T05:13:40;102739.41;;;-1.18;100.00
8627;BME280;4351;51.422;6.794;2023-03-01T05:16:09;102735.00;;;-1.17;100.00
8627;BME280;4351;51.422;6.794;2023-03-01T05:18:40;102734.31;;;-1.07;100.00
8627;BME280;4351;51.422;6.794;2023-03-01T05:21:10;102734.41;;;-1.02;100.00
8627;BME280;4351;51.422;6.794;2023-03-01T05:23:39;102733.72;;;-0.91;100.00
8627;BME280;4351;51.422;6.794;2023-03-01T05:26:08;102723.22;;;-0.88;100.00
8627;BME280;4351;51.422;6.794;2023-03-01T05:28:52;102724.84;;;-0.95;100.00
8627;BME280;4351;51.422;6.794;2023-03-01T05:31:27;102718.72;;;-0.93;100.00
8627;BME280;4351;51.422;6.794;2023-03-01T05:33:57;102717.72;;;-0.96;100.00
8627;BME280;4351;51.422;6.794;2023-03-01T05:36:25;102717.50;;;-1.09;100.00
8627;BME280;4351;51.422;6.794;2023-03-01T05:38:53;102712.28;;;-1.06;100.00
8627;BME280;4351;51.422;6.794;2023-03-01T05:41:21;102723.47;;;-1.19;100.00
8627;BME280;4351;51.422;6.794;2023-03-01T05:43:48;102717.44;;;-1.12;100.00
8627;BME280;4351;51.422;6.794;2023-03-01T05:46:16;102715.88;;;-1.00;100.00
8627;BME280;4351;51.422;6.794;2023-03-01T05:48:46;102716.78;;;-1.00;100.00
8627;BME280;4351;51.422;6.794;2023-03-01T05:51:14;102718.59;;;-0.99;100.00
8627;BME280;4351;51.422;6.794;2023-03-01T05:53:42;102713.28;;;-0.99;100.00
8627;BME280;4351;51.422;6.794;2023-03-01T05:56:10;102715.88;;;-1.00;100.00
8627;BME280;4351;51.422;6.794;2023-03-01T05:58:38;102720.47;;;-0.91;100.00
8627;BME280;4351;51.422;6.794;2023-03-01T06:01:11;102721.16;;;-1.03;100.00
8627;BME280;4351;51.422;6.794;2023-03-01T06:03:39;102729.81;;;-1.11;100.00
8627;BME280;4351;51.422;6.794;2023-03-01T06:06:08;102734.41;;;-1.03;100.00
8627;BME280;4351;51.422;6.794;2023-03-01T06:08:36;102735.97;;;-1.12;100.00
8627;BME280;4351;51.422;6.794;2023-03-01T06:11:04;102729.50;;;-1.27;100.00
8627;BME280;4351;51.422;6.794;2023-03-01T06:13:33;102724.53;;;-1.11;100.00
8627;BME280;4351;51.422;6.794;2023-03-01T06:16:04;102714.13;;;-1.00;100.00
8627;BME280;4351;51.422;6.794;2023-03-01T06:18:33;102715.88;;;-1.02;100.00
8627;BME280;4351;51.422;6.794;2023-03-01T06:21:00;102717.69;;;-0.99;100.00
8627;BME280;4351;51.422;6.794;2023-03-01T06:23:30;102708.00;;;-0.99;100.00
8627;BME280;4351;51.422;6.794;2023-03-01T06:25:58;102704.47;;;-0.96;100.00
8627;BME280;4351;51.422;6.794;2023-03-01T06:28:26;102705.25;;;-1.03;100.00
8627;BME280;4351;51.422;6.794;2023-03-01T06:30:54;102713.34;;;-0.94;100.00
8627;BME280;4351;51.422;6.794;2023-03-01T06:33:22;102710.44;;;-1.10;100.00
8627;BME280;4351;51.422;6.794;2023-03-01T06:35:50;102715.16;;;-0.93;100.00
8627;BME280;4351;51.422;6.794;2023-03-01T06:38:19;102708.16;;;-0.89;100.00
8627;BME280;4351;51.422;6.794;2023-03-01T06:40:52;102703.13;;;-1.20;100.00
8627;BME280;4351;51.422;6.794;2023-03-01T06:43:21;102703.41;;;-1.08;100.00
8627;BME280;4351;51.422;6.794;2023-03-01T06:45:50;102710.59;;;-1.00;100.00
8627;BME280;4351;51.422;6.794;2023-03-01T06:48:17;102707.22;;;-0.93;100.00
8627;BME280;4351;51.422;6.794;2023-03-01T06:50:45;102701.91;;;-0.93;100.00
8627;BME280;4351;51.422;6.794;2023-03-01T06:53:13;102715.06;;;-0.98;100.00
8627;BME280;4351;51.422;6.794;2023-03-01T06:55:41;102716.50;;;-0.67;100.00
8627;BME280;4351;51.422;6.794;2023-03-01T06:58:10;102708.25;;;-0.83;100.00
8627;BME280;4351;51.422;6.794;2023-03-01T07:00:38;102714.66;;;-0.72;100.00
8627;BME280;4351;51.422;6.794;2023-03-01T07:03:08;102709.66;;;-0.54;100.00
8627;BME280;4351;51.422;6.794;2023-03-01T07:05:36;102705.25;;;-0.54;100.00
8627;BME280;4351;51.422;6.794;2023-03-01T07:08:04;102711.41;;;-0.56;100.00
8627;BME280;4351;51.422;6.794;2023-03-01T07:10:32;102714.34;;;-0.39;100.00
8627;BME280;4351;51.422;6.794;2023-03-01T07:12:59;102702.22;;;-0.25;100.00
8627;BME280;4351;51.422;6.794;2023-03-01T07:15:28;102707.72;;;-0.12;100.00
8627;BME280;4351;51.422;6.794;2023-03-01T07:17:56;102708.75;;;-0.02;100.00
8627;BME280;4351;51.422;6.794;2023-03-01T07:20:25;102700.91;;;0.71;100.00
8627;BME280;4351;51.422;6.794;2023-03-01T07:22:53;102696.84;;;1.05;100.00
8627;BME280;4351;51.422;6.794;2023-03-01T07:25:21;102696.53;;;1.67;100.00
8627;BME280;4351;51.422;6.794;2023-03-01T07:27:50;102700.22;;;1.80;100.00
8627;BME280;4351;51.422;6.794;2023-03-01T07:30:20;102695.34;;;2.52;100.00
8627;BME280;4351;51.422;6.794;2023-03-01T07:32:49;102697.09;;;2.50;100.00
8627;BME280;4351;51.422;6.794;2023-03-01T07:35:21;102696.28;;;2.74;100.00
8627;BME280;4351;51.422;6.794;2023-03-01T07:37:49;102689.03;;;2.34;100.00
8627;BME280;4351;51.422;6.794;2023-03-01T07:40:17;102676.75;;;2.75;100.00
8627;BME280;4351;51.422;6.794;2023-03-01T07:42:45;102684.00;;;3.16;100.00
8627;BME280;4351;51.422;6.794;2023-03-01T07:45:13;102684.00;;;3.47;100.00
8627;BME280;4351;51.422;6.794;2023-03-01T07:47:41;102678.69;;;3.67;100.00
8627;BME280;4351;51.422;6.794;2023-03-01T07:50:10;102677.78;;;3.40;100.00
8627;BME280;4351;51.422;6.794;2023-03-01T07:52:39;102686.66;;;3.69;100.00
8627;BME280;4351;51.422;6.794;2023-03-01T07:55:08;102679.56;;;3.90;100.00
8627;BME280;4351;51.422;6.794;2023-03-01T07:57:35;102681.34;;;3.78;100.00
8627;BME280;4351;51.422;6.794;2023-03-01T08:00:04;102683.13;;;3.67;100.00
8627;BME280;4351;51.422;6.794;2023-03-01T08:02:37;102679.56;;;3.68;100.00
8627;BME280;4351;51.422;6.794;2023-03-01T08:05:07;102684.91;;;3.70;100.00
8627;BME280;4351;51.422;6.794;2023-03-01T08:07:37;102686.66;;;3.53;100.00
8627;BME280;4351;51.422;6.794;2023-03-01T08:10:05;102684.91;;;3.54;100.00
8627;BME280;4351;51.422;6.794;2023-03-01T08:12:34;102684.91;;;3.65;100.00
8627;BME280;4351;51.422;6.794;2023-03-01T08:15:02;102686.69;;;3.77;100.00
8627;BME280;4351;51.422;6.794;2023-03-01T08:17:30;102685.78;;;3.39;100.00
8627;BME280;4351;51.422;6.794;2023-03-01T08:19:58;102677.75;;;4.01;100.00
8627;BME280;4351;51.422;6.794;2023-03-01T08:22:26;102680.41;;;4.03;100.00
8627;BME280;4351;51.422;6.794;2023-03-01T08:24:55;102681.22;;;4.38;100.00
8627;BME280;4351;51.422;6.794;2023-03-01T08:27:23;102678.66;;;3.42;100.00
8627;BME280;4351;51.422;6.794;2023-03-01T08:29:51;102672.44;;;3.45;100.00
8627;BME280;4351;51.422;6.794;2023-03-01T08:32:19;102669.78;;;3.72;100.00
8627;BME280;4351;51.422;6.794;2023-03-01T08:34:47;102672.44;;;3.79;100.00
8627;BME280;4351;51.422;6.794;2023-03-01T08:37:15;102670.59;;;4.13;100.00
8627;BME280;4351;51.422;6.794;2023-03-01T08:39:43;102665.31;;;3.72;100.00
8627;BME280;4351;51.422;6.794;2023-03-01T08:42:12;102664.38;;;4.08;100.00
8627;BME280;4351;51.422;6.794;2023-03-01T08:44:41;102668.75;;;4.37;100.00
8627;BME280;4351;51.422;6.794;2023-03-01T08:47:11;102672.16;;;4.74;100.00
8627;BME280;4351;51.422;6.794;2023-03-01T08:49:39;102662.34;;;4.74;100.00
8627;BME280;4351;51.422;6.794;2023-03-01T08:52:07;102658.06;;;4.34;100.00
8627;BME280;4351;51.422;6.794;2023-03-01T08:54:35;102658.09;;;4.21;100.00
8627;BME280;4351;51.422;6.794;2023-03-01T08:57:03;102650.00;;;4.51;100.00
8627;BME280;4351;51.422;6.794;2023-03-01T08:59:33;102641.94;;;4.56;100.00
8627;BME280;4351;51.422;6.794;2023-03-01T09:02:03;102648.19;;;4.55;100.00
8627;BME280;4351;51.422;6.794;2023-03-01T09:04:31;102653.38;;;4.83;100.00
8627;BME280;4351;51.422;6.794;2023-03-01T09:07:00;102649.06;;;4.60;100.00
8627;BME280;4351;51.422;6.794;2023-03-01T09:09:27;102647.22;;;4.68;100.00
8627;BME280;4351;51.422;6.794;2023-03-01T09:11:55;102642.66;;;4.91;100.00
8627;BME280;4351;51.422;6.794;2023-03-01T09:14:23;102635.66;;;4.65;100.00
8627;BME280;4351;51.422;6.794;2023-03-01T09:16:52;102645.41;;;4.77;100.00
8627;BME280;4351;51.422;6.794;2023-03-01T09:19:20;102640.88;;;4.91;100.00
8627;BME280;4351;51.422;6.794;2023-03-01T09:21:50;102636.47;;;4.79;100.00
8627;BME280;4351;51.422;6.794;2023-03-01T09:24:20;102641.00;;;4.69;100.00
8627;BME280;4351;51.422;6.794;2023-03-01T09:26:49;102653.31;;;4.97;100.00
8627;BME280;4351;51.422;6.794;2023-03-01T09:29:17;102643.41;;;5.07;100.00
8627;BME280;4351;51.422;6.794;2023-03-01T09:31:45;102639.09;;;4.90;100.00
8627;BME280;4351;51.422;6.794;2023-03-01T09:34:14;102641.81;;;4.84;100.00
8627;BME280;4351;51.422;6.794;2023-03-01T09:36:42;102632.00;;;4.81;100.00
8627;BME280;4351;51.422;6.794;2023-03-01T09:39:10;102622.25;;;4.76;100.00
8627;BME280;4351;51.422;6.794;2023-03-01T09:41:44;102618.56;;;4.96;100.00
8627;BME280;4351;51.422;6.794;2023-03-01T09:44:21;102624.03;;;4.74;100.00
8627;BME280;4351;51.422;6.794;2023-03-01T09:46:51;102610.66;;;4.74;100.00
8627;BME280;4351;51.422;6.794;2023-03-01T09:49:23;102616.97;;;4.57;100.00
8627;BME280;4351;51.422;6.794;2023-03-01T09:51:59;102611.22;;;5.21;100.00
8627;BME280;4351;51.422;6.794;2023-03-01T09:54:27;102605.59;;;5.51;100.00
8627;BME280;4351;51.422;6.794;2023-03-01T09:57:11;102606.34;;;5.70;100.00
8627;BME280;4351;51.422;6.794;2023-03-01T09:59:59;102598.56;;;5.44;100.00
8627;BME280;4351;51.422;6.794;2023-03-01T10:02:38;102609.22;;;5.47;100.00
8627;BME280;4351;51.422;6.794;2023-03-01T10:05:26;102618.41;;;5.11;100.00
8627;BME280;4351;51.422;6.794;2023-03-01T10:08:07;102604.03;;;5.28;100.00
8627;BME280;4351;51.422;6.794;2023-03-01T10:10:44;102605.59;;;5.51;100.00
8627;BME280;4351;51.422;6.794;2023-03-01T10:13:17;102611.75;;;5.62;100.00
8627;BME280;4351;51.422;6.794;2023-03-01T10:15:49;102591.88;;;5.85;100.00
8627;BME280;4351;51.422;6.794;2023-03-01T10:18:25;102595.91;;;5.36;100.00
8627;BME280;4351;51.422;6.794;2023-03-01T10:20:58;102596.41;;;5.77;100.00
8627;BME280;4351;51.422;6.794;2023-03-01T10:23:29;102592.09;;;5.65;100.00
8627;BME280;4351;51.422;6.794;2023-03-01T10:26:15;102574.72;;;6.02;100.00
8627;BME280;4351;51.422;6.794;2023-03-01T10:28:56;102572.06;;;6.01;100.00
8627;BME280;4351;51.422;6.794;2023-03-01T10:31:35;102564.16;;;5.90;100.00
8627;BME280;4351;51.422;6.794;2023-03-01T10:34:10;102562.19;;;6.07;100.00
8627;BME280;4351;51.422;6.794;2023-03-01T10:36:40;102558.59;;;6.08;100.00
8627;BME280;4351;51.422;6.794;2023-03-01T10:39:15;102567.19;;;6.36;100.00
8627;BME280;4351;51.422;6.794;2023-03-01T10:41:56;102562.81;;;6.28;100.00
8627;BME280;4351;51.422;6.794;2023-03-01T10:44:40;102545.59;;;6.45;100.00
8627;BME280;4351;51.422;6.794;2023-03-01T10:47:15;102542.16;;;6.37;100.00
8627;BME280;4351;51.422;6.794;2023-03-01T10:49:58;102542.56;;;6.02;100.00
8627;BME280;4351;51.422;6.794;2023-03-01T10:52:31;102545.13;;;6.15;100.00
8627;BME280;4351;51.422;6.794;2023-03-01T10:55:02;102547.78;;;6.15;100.00
8627;BME280;4351;51.422;6.794;2023-03-01T10:57:34;102523.28;;;6.43;100.00
8627;BME280;4351;51.422;6.794;2023-03-01T11:00:25;102531.16;;;5.88;100.00
8627;BME280;4351;51.422;6.794;2023-03-01T11:03:11;102539.78;;;6.13;100.00
8627;BME280;4351;51.422;6.794;2023-03-01T11:05:51;102526.44;;;6.08;100.00
8627;BME280;4351;51.422;6.794;2023-03-01T11:08:39;102509.13;;;6.33;100.00
8627;BME280;4351;51.422;6.794;2023-03-01T11:11:17;102512.91;;;6.19;100.00
8627;BME280;4351;51.422;6.794;2023-03-01T11:13:50;102504.47;;;6.46;100.00
8627;BME280;4351;51.422;6.794;2023-03-01T11:16:25;102503.34;;;6.61;100.00
8627;BME280;4351;51.422;6.794;2023-03-01T11:19:13;102501.63;;;6.57;100.00
8627;BME280;4351;51.422;6.794;2023-03-01T11:21:44;102496.25;;;6.60;100.00
8627;BME280;4351;51.422;6.794;2023-03-01T11:24:17;102491.53;;;6.75;100.00
8627;BME280;4351;51.422;6.794;2023-03-01T11:26:51;102493.28;;;6.77;100.00
8627;BME280;4351;51.422;6.794;2023-03-01T11:29:26;102492.94;;;6.96;100.00
8627;BME280;4351;51.422;6.794;2023-03-01T11:32:07;102491.03;;;7.05;100.00
8627;BME280;4351;51.422;6.794;2023-03-01T11:34:40;102475.50;;;6.70;100.00
8627;BME280;4351;51.422;6.794;2023-03-01T11:37:19;102468.00;;;6.91;100.00
8627;BME280;4351;51.422;6.794;2023-03-01T11:39:58;102468.09;;;7.35;100.00
8627;BME280;4351;51.422;6.794;2023-03-01T11:42:34;102460.47;;;7.12;100.00
8627;BME280;4351;51.422;6.794;2023-03-01T11:45:11;102463.25;;;7.07;100.00
8627;BME280;4351;51.422;6.794;2023-03-01T11:47:52;102470.94;;;7.28;100.00
8627;BME280;4351;51.422;6.794;2023-03-01T11:50:30;102466.94;;;7.00;100.00
8627;BME280;4351;51.422;6.794;2023-03-01T11:53:33;102483.44;;;7.29;100.00
8627;BME280;4351;51.422;6.794;2023-03-01T11:56:11;102480.78;;;7.27;100.00
8627;BME280;4351;51.422;6.794;2023-03-01T11:59:03;102478.19;;;7.22;100.00
8627;BME280;4351;51.422;6.794;2023-03-01T12:01:51;102458.94;;;7.46;100.00
8627;BME280;4351;51.422;6.794;2023-03-01T12:04:48;102463.88;;;7.68;100.00
8627;BME280;4351;51.422;6.794;2023-03-01T12:07:25;102460.59;;;7.53;100.00
8627;BME280;4351;51.422;6.794;2023-03-01T12:10:15;102465.34;;;7.85;100.00
8627;BME280;4351;51.422;6.794;2023-03-01T12:12:58;102465.19;;;7.46;100.00
8627;BME280;4351;51.422;6.794;2023-03-01T12:15:44;102446.19;;;7.57;100.00
8627;BME280;4351;51.422;6.794;2023-03-01T12:18:53;102452.25;;;7.67;100.00
8627;BME280;4351;51.422;6.794;2023-03-01T12:21:33;102443.47;;;7.59;100.00
8627;BME280;4351;51.422;6.794;2023-03-01T12:24:13;102436.44;;;7.94;100.00
8627;BME280;4351;51.422;6.794;2023-03-01T12:26:59;102438.56;;;7.80;100.00
8627;BME280;4351;51.422;6.794;2023-03-01T12:29:34;102433.34;;;7.28;100.00
8627;BME280;4351;51.422;6.794;2023-03-01T12:32:23;102438.16;;;7.56;100.00
8627;BME280;4351;51.422;6.794;2023-03-01T12:35:06;102428.75;;;7.33;100.00
8627;BME280;4351;51.422;6.794;2023-03-01T12:37:48;102416.19;;;7.35;100.00
8627;BME280;4351;51.422;6.794;2023-03-01T12:43:23;102421.44;;;6.95;100.00
8627;BME280;4351;51.422;6.794;2023-03-01T12:46:18;102407.06;;;7.44;100.00
8627;BME280;4351;51.422;6.794;2023-03-01T12:48:56;102407.09;;;7.85;100.00
8627;BME280;4351;51.422;6.794;2023-03-01T12:51:30;102397.00;;;7.95;100.00
8627;BME280;4351;51.422;6.794;2023-03-01T12:54:05;102402.25;;;8.01;100.00
8627;BME280;4351;51.422;6.794;2023-03-01T12:56:36;102400.34;;;8.07;100.00
8627;BME280;4351;51.422;6.794;2023-03-01T12:59:12;102382.59;;;8.37;100.00
8627;BME280;4351;51.422;6.794;2023-03-01T13:01:49;102398.50;;;8.09;100.00
8627;BME280;4351;51.422;6.794;2023-03-01T13:04:29;102387.25;;;7.91;100.00
8627;BME280;4351;51.422;6.794;2023-03-01T13:07:16;102389.59;;;8.07;100.00
8627;BME280;4351;51.422;6.794;2023-03-01T13:09:50;102384.25;;;7.65;100.00
8627;BME280;4351;51.422;6.794;2023-03-01T13:12:50;102377.16;;;8.02;100.00
8627;BME280;4351;51.422;6.794;2023-03-01T13:15:26;102380.81;;;7.98;100.00
8627;BME280;4351;51.422;6.794;2023-03-01T13:17:58;102382.47;;;7.64;100.00
8627;BME280;4351;51.422;6.794;2023-03-01T13:20:30;102380.94;;;7.93;100.00
8627;BME280;4351;51.422;6.794;2023-03-01T13:23:03;102373.00;;;7.87;100.00
8627;BME280;4351;51.422;6.794;2023-03-01T13:25:31;102370.72;;;8.08;100.00
8627;BME280;4351;51.422;6.794;2023-03-01T13:34:53;102346.91;;;7.92;100.00
8627;BME280;4351;51.422;6.794;2023-03-01T13:37:33;102375.81;;;7.41;100.00
8627;BME280;4351;51.422;6.794;2023-03-01T13:43:27;102360.81;;;7.70;100.00